Terminal Aerodrome Forecast
Issued by NWS Mt. Holly, NJ

Home | Current Version | Previous Version | Text Only | Print | Product List | Glossary On
Versions: 1 2 3 4 5 6 7 8 9 10 11 12 13 14 15 16 17 18 19
000
FTUS41 KPHI 020700 AAA
TAFABE
TAF AMD
KABE 020757Z 0208/0306 04003KT 5SM -SHRA BR SCT008 OVC015
      TEMPO 0208/0212 2SM RA BR BKN008 OVC015
     FM021700 09006KT P6SM BKN050
     FM030500 11003KT P6SM BKN025 OVC050=

USA.gov is the U.S. government's official web portal to all federal, state and local government web resources and services.